• Join FlightAware (Why Join?)
  • Login
  • US Flag 
04:24AM EDT


 

Airport Tracker/Info


-or-


 

Live Flight TrackerFlight Track Log ✈ N102WY ✈ 08-May-2013 ✈ KLAR - W43

Flight Track Log - Related Links

Times and Time Zones

All times are in EDT time to prevent confusion due to time zone crossing. See the N102WY flight status page for this flight to view local times or setup timezone preferences in your user account.

Time Position Orientation Groundspeed Altitude Reporting Facility
EDT Latitude Longitude Course Direction KTS MPH feet Rate Location/Type
11:20PM 41.3308 -105.7367 14° North 195 224 11,600  Level Denver Center
11:21PM 41.3906 -105.7175 14° North 229 264 14,800 3,180 Climbing Denver Center
11:22PM 41.4736 -105.6831 17° North 273 314 18,200 3,180 Climbing Denver Center
11:23PM 41.5500 -105.6567 14° North 291 335 21,300 3,240 Climbing Denver Center
11:24PM 41.6394 -105.6269 14° North 296 341 24,800 2,820 Climbing Denver Center
11:25PM 41.7178 -105.6008 14° North 300 345 27,100 2,040 Climbing Denver Center
11:26PM 41.8047 -105.5717 14° North 328 377 29,100 2,040 Climbing Denver Center
11:27PM 41.9133 -105.5381 13° North 356 410 31,300 1,860 Climbing Denver Center
11:28PM 42.0094 -105.5086 13° North 369 425 32,900 780 Climbing Denver Center
11:29PM 42.1047 -105.4772 14° North 367 422 33,000  Climbing Denver Center
11:30PM 42.2206 -105.4411 13° North 376 433 33,000  Level Denver Center
11:31PM 42.3017 -105.4158 13° North 374 430 33,000 300 Level Denver Center
11:32PM 42.4281 -105.3733 14° North 368 423 33,700 780 Climbing Denver Center
11:33PM 42.5225 -105.3431 13° North 364 419 34,600 600 Climbing Denver Center
11:34PM 42.6183 -105.3125 13° North 367 422 35,000 180 Climbing Denver Center
11:35PM 42.7283 -105.2769 13° North 363 418 35,000  Level Denver Center
11:36PM 42.8236 -105.2458 13° North 365 420 35,000  Level Denver Center
11:37PM 42.9172 -105.2150 14° North 362 417 35,000  Level Denver Center
11:38PM 43.0253 -105.1800 13° North 356 410 35,000  Level Denver Center
11:39PM 43.1181 -105.1478 14° North 358 412 35,000  Level Denver Center
11:40PM 43.2106 -105.1178 13° North 358 412 35,000  Level Denver Center
11:41PM 43.3172 -105.0825 14° North 354 407 35,000 -120 Level Denver Center
11:42PM 43.3944 -105.0575 13° North 355 409 34,800 -660 Descending Denver Center
11:43PM 43.5056 -105.0194 14° North 363 418 33,700 -1,320 Descending Denver Center
11:44PM 43.6169 -104.9819 14° North 369 425 32,200 -2,040 Descending Denver Center
11:45PM 43.7133 -104.9486 14° North 371 427 29,600 -2,880 Descending Denver Center
11:46PM 43.8206 -104.9128 14° North 360 414 26,400 -2,940 Descending Denver Center
11:47PM 43.9108 -104.8839 13° North 351 404 23,700 -2,460 Descending Denver Center
11:48PM 43.9825 -104.8567 15° North 341 392 21,400 -3,000 Descending Denver Center
11:49PM 44.0917 -104.8197 14° North 325 374 17,700 -3,660 Descending Denver Center